sensor_id;sensor_type;location;lat;lon;timestamp;temperature;humidity
12426;DHT22;6277;49.824;9.562;2024-03-23T00:55:34;10.10;64.70
12426;DHT22;6277;49.824;9.562;2024-03-23T00:57:59;10.00;64.70
12426;DHT22;6277;49.824;9.562;2024-03-23T01:00:25;10.10;64.90
12426;DHT22;6277;49.824;9.562;2024-03-23T01:02:50;10.10;65.10
12426;DHT22;6277;49.824;9.562;2024-03-23T01:05:16;10.10;65.30
12426;DHT22;6277;49.824;9.562;2024-03-23T01:07:41;10.10;65.40
12426;DHT22;6277;49.824;9.562;2024-03-23T01:10:07;10.10;65.30
12426;DHT22;6277;49.824;9.562;2024-03-23T01:12:33;10.20;65.50
12426;DHT22;6277;49.824;9.562;2024-03-23T01:14:58;10.20;65.40
12426;DHT22;6277;49.824;9.562;2024-03-23T01:17:24;10.30;65.40
12426;DHT22;6277;49.824;9.562;2024-03-23T01:19:49;10.30;65.30
12426;DHT22;6277;49.824;9.562;2024-03-23T01:22:15;10.30;65.30
12426;DHT22;6277;49.824;9.562;2024-03-23T01:24:40;10.30;65.30
12426;DHT22;6277;49.824;9.562;2024-03-23T01:27:06;10.40;65.30
12426;DHT22;6277;49.824;9.562;2024-03-23T01:29:31;10.40;65.20
12426;DHT22;6277;49.824;9.562;2024-03-23T01:31:57;10.40;65.40
12426;DHT22;6277;49.824;9.562;2024-03-23T01:34:22;10.40;65.40
12426;DHT22;6277;49.824;9.562;2024-03-23T01:36:50;10.40;65.40
12426;DHT22;6277;49.824;9.562;2024-03-23T01:39:15;10.30;65.50
12426;DHT22;6277;49.824;9.562;2024-03-23T01:41:42;10.30;65.60
12426;DHT22;6277;49.824;9.562;2024-03-23T01:44:09;10.30;65.50
12426;DHT22;6277;49.824;9.562;2024-03-23T01:46:37;10.30;65.60
12426;DHT22;6277;49.824;9.562;2024-03-23T01:49:05;10.30;65.90
12426;DHT22;6277;49.824;9.562;2024-03-23T01:51:31;10.30;65.80
12426;DHT22;6277;49.824;9.562;2024-03-23T01:53:57;10.30;65.80
12426;DHT22;6277;49.824;9.562;2024-03-23T01:56:26;10.30;65.70
12426;DHT22;6277;49.824;9.562;2024-03-23T01:58:51;10.30;65.70
12426;DHT22;6277;49.824;9.562;2024-03-23T02:01:17;10.30;65.80
12426;DHT22;6277;49.824;9.562;2024-03-23T02:03:42;10.30;65.70
12426;DHT22;6277;49.824;9.562;2024-03-23T02:06:08;10.30;65.80
12426;DHT22;6277;49.824;9.562;2024-03-23T02:08:34;10.30;65.90
12426;DHT22;6277;49.824;9.562;2024-03-23T02:11:00;10.30;65.90
12426;DHT22;6277;49.824;9.562;2024-03-23T02:13:25;10.30;66.00
12426;DHT22;6277;49.824;9.562;2024-03-23T02:15:51;10.30;66.10
12426;DHT22;6277;49.824;9.562;2024-03-23T02:18:16;10.30;66.20
12426;DHT22;6277;49.824;9.562;2024-03-23T02:20:42;10.30;66.30
12426;DHT22;6277;49.824;9.562;2024-03-23T02:23:17;10.40;66.30
12426;DHT22;6277;49.824;9.562;2024-03-23T02:25:46;10.40;66.90
12426;DHT22;6277;49.824;9.562;2024-03-23T02:28:11;10.50;66.50
12426;DHT22;6277;49.824;9.562;2024-03-23T02:30:37;10.50;66.60
12426;DHT22;6277;49.824;9.562;2024-03-23T02:33:03;10.60;66.80
12426;DHT22;6277;49.824;9.562;2024-03-23T02:35:29;10.70;66.90
12426;DHT22;6277;49.824;9.562;2024-03-23T02:37:55;10.70;66.90
12426;DHT22;6277;49.824;9.562;2024-03-23T02:40:22;10.80;66.90
12426;DHT22;6277;49.824;9.562;2024-03-23T02:42:48;10.90;66.90
12426;DHT22;6277;49.824;9.562;2024-03-23T02:45:14;10.90;66.80
12426;DHT22;6277;49.824;9.562;2024-03-23T02:47:39;11.00;66.90
12426;DHT22;6277;49.824;9.562;2024-03-23T02:50:05;11.10;67.00
12426;DHT22;6277;49.824;9.562;2024-03-23T02:52:31;11.10;67.00
12426;DHT22;6277;49.824;9.562;2024-03-23T02:54:57;11.20;67.10
12426;DHT22;6277;49.824;9.562;2024-03-23T02:57:22;11.30;67.10
12426;DHT22;6277;49.824;9.562;2024-03-23T02:59:48;11.40;67.10
12426;DHT22;6277;49.824;9.562;2024-03-23T03:02:16;11.40;67.00
12426;DHT22;6277;49.824;9.562;2024-03-23T03:04:42;11.50;67.10
12426;DHT22;6277;49.824;9.562;2024-03-23T03:07:07;11.50;67.00
12426;DHT22;6277;49.824;9.562;2024-03-23T03:09:33;11.60;67.00
12426;DHT22;6277;49.824;9.562;2024-03-23T03:12:01;11.70;67.00
12426;DHT22;6277;49.824;9.562;2024-03-23T03:14:27;11.80;67.00
12426;DHT22;6277;49.824;9.562;2024-03-23T03:16:53;11.80;67.00
12426;DHT22;6277;49.824;9.562;2024-03-23T03:19:19;11.90;67.10
12426;DHT22;6277;49.824;9.562;2024-03-23T03:21:44;12.00;67.20
12426;DHT22;6277;49.824;9.562;2024-03-23T03:24:10;12.00;67.10
12426;DHT22;6277;49.824;9.562;2024-03-23T03:26:35;12.10;67.20
12426;DHT22;6277;49.824;9.562;2024-03-23T03:29:02;12.10;67.30
12426;DHT22;6277;49.824;9.562;2024-03-23T03:31:27;12.20;67.30
12426;DHT22;6277;49.824;9.562;2024-03-23T03:33:53;12.20;67.30
12426;DHT22;6277;49.824;9.562;2024-03-23T03:36:18;12.30;67.40
12426;DHT22;6277;49.824;9.562;2024-03-23T03:38:44;12.40;67.50
12426;DHT22;6277;49.824;9.562;2024-03-23T03:41:10;12.40;67.50
12426;DHT22;6277;49.824;9.562;2024-03-23T03:43:35;12.50;67.50
12426;DHT22;6277;49.824;9.562;2024-03-23T03:46:02;12.50;68.10
12426;DHT22;6277;49.824;9.562;2024-03-23T03:48:28;12.60;67.40
12426;DHT22;6277;49.824;9.562;2024-03-23T03:50:54;12.60;67.40
12426;DHT22;6277;49.824;9.562;2024-03-23T03:53:20;12.70;67.30
12426;DHT22;6277;49.824;9.562;2024-03-23T03:55:45;12.70;67.30
12426;DHT22;6277;49.824;9.562;2024-03-23T03:58:11;12.70;67.10
12426;DHT22;6277;49.824;9.562;2024-03-23T04:00:36;12.70;67.10
12426;DHT22;6277;49.824;9.562;2024-03-23T04:03:02;12.70;67.00
12426;DHT22;6277;49.824;9.562;2024-03-23T04:05:27;12.70;66.90
12426;DHT22;6277;49.824;9.562;2024-03-23T04:07:53;12.70;66.90
12426;DHT22;6277;49.824;9.562;2024-03-23T04:10:19;12.70;67.10
12426;DHT22;6277;49.824;9.562;2024-03-23T04:12:45;12.70;67.20
12426;DHT22;6277;49.824;9.562;2024-03-23T04:15:11;12.70;67.20
12426;DHT22;6277;49.824;9.562;2024-03-23T04:17:37;12.70;67.30
12426;DHT22;6277;49.824;9.562;2024-03-23T04:20:03;12.70;67.30
12426;DHT22;6277;49.824;9.562;2024-03-23T04:22:35;12.70;67.40
12426;DHT22;6277;49.824;9.562;2024-03-23T04:25:00;12.70;67.30
12426;DHT22;6277;49.824;9.562;2024-03-23T04:27:32;12.80;67.60
12426;DHT22;6277;49.824;9.562;2024-03-23T04:29:58;12.80;67.60
12426;DHT22;6277;49.824;9.562;2024-03-23T04:32:26;12.90;68.30
12426;DHT22;6277;49.824;9.562;2024-03-23T04:34:52;12.90;67.70
12426;DHT22;6277;49.824;9.562;2024-03-23T04:37:18;13.00;67.70
12426;DHT22;6277;49.824;9.562;2024-03-23T04:39:45;13.00;67.70
12426;DHT22;6277;49.824;9.562;2024-03-23T04:42:10;13.10;67.70
12426;DHT22;6277;49.824;9.562;2024-03-23T04:44:37;13.20;67.60
12426;DHT22;6277;49.824;9.562;2024-03-23T04:47:03;13.20;67.50
12426;DHT22;6277;49.824;9.562;2024-03-23T04:49:28;13.30;67.40
12426;DHT22;6277;49.824;9.562;2024-03-23T04:51:54;13.40;67.40
12426;DHT22;6277;49.824;9.562;2024-03-23T04:54:19;13.40;67.10
12426;DHT22;6277;49.824;9.562;2024-03-23T04:56:45;13.50;67.10
12426;DHT22;6277;49.824;9.562;2024-03-23T04:59:11;13.50;66.90
12426;DHT22;6277;49.824;9.562;2024-03-23T05:01:37;13.60;66.80
12426;DHT22;6277;49.824;9.562;2024-03-23T05:04:04;13.60;66.70
12426;DHT22;6277;49.824;9.562;2024-03-23T05:06:30;13.60;66.60
12426;DHT22;6277;49.824;9.562;2024-03-23T05:08:56;13.60;66.50
12426;DHT22;6277;49.824;9.562;2024-03-23T05:11:21;13.70;66.50
12426;DHT22;6277;49.824;9.562;2024-03-23T05:13:47;13.70;66.40
12426;DHT22;6277;49.824;9.562;2024-03-23T05:16:13;13.70;66.30
12426;DHT22;6277;49.824;9.562;2024-03-23T05:18:38;13.70;66.30
12426;DHT22;6277;49.824;9.562;2024-03-23T05:21:04;13.70;66.20
12426;DHT22;6277;49.824;9.562;2024-03-23T05:23:29;13.70;66.10
12426;DHT22;6277;49.824;9.562;2024-03-23T05:25:55;13.70;66.00
12426;DHT22;6277;49.824;9.562;2024-03-23T05:28:24;13.70;66.00
12426;DHT22;6277;49.824;9.562;2024-03-23T05:30:53;13.70;65.90
12426;DHT22;6277;49.824;9.562;2024-03-23T05:33:20;13.70;66.00
12426;DHT22;6277;49.824;9.562;2024-03-23T05:35:46;13.80;66.10
12426;DHT22;6277;49.824;9.562;2024-03-23T05:38:12;13.80;66.00
12426;DHT22;6277;49.824;9.562;2024-03-23T05:40:37;13.80;66.10
12426;DHT22;6277;49.824;9.562;2024-03-23T05:43:06;13.80;66.00
12426;DHT22;6277;49.824;9.562;2024-03-23T05:45:32;13.80;66.00
12426;DHT22;6277;49.824;9.562;2024-03-23T05:47:57;13.80;66.10
12426;DHT22;6277;49.824;9.562;2024-03-23T05:50:23;13.80;66.00
12426;DHT22;6277;49.824;9.562;2024-03-23T05:52:49;13.80;66.00
12426;DHT22;6277;49.824;9.562;2024-03-23T05:55:15;13.70;66.50
12426;DHT22;6277;49.824;9.562;2024-03-23T05:57:41;13.60;67.00
12426;DHT22;6277;49.824;9.562;2024-03-23T06:00:07;13.40;67.10
12426;DHT22;6277;49.824;9.562;2024-03-23T06:02:43;13.20;66.30
12426;DHT22;6277;49.824;9.562;2024-03-23T06:05:12;12.90;66.90
12426;DHT22;6277;49.824;9.562;2024-03-23T06:07:38;12.70;67.20
12426;DHT22;6277;49.824;9.562;2024-03-23T06:10:04;12.50;67.20
12426;DHT22;6277;49.824;9.562;2024-03-23T06:12:31;12.20;68.30
12426;DHT22;6277;49.824;9.562;2024-03-23T06:14:56;12.00;68.40
12426;DHT22;6277;49.824;9.562;2024-03-23T06:17:22;11.90;68.60
12426;DHT22;6277;49.824;9.562;2024-03-23T06:19:47;11.70;69.10
12426;DHT22;6277;49.824;9.562;2024-03-23T06:22:14;11.60;69.70
12426;DHT22;6277;49.824;9.562;2024-03-23T06:24:39;11.40;70.30
12426;DHT22;6277;49.824;9.562;2024-03-23T06:27:05;11.30;70.50
12426;DHT22;6277;49.824;9.562;2024-03-23T06:29:31;11.20;70.80
12426;DHT22;6277;49.824;9.562;2024-03-23T06:31:56;11.10;71.10
12426;DHT22;6277;49.824;9.562;2024-03-23T06:34:22;11.00;70.50
12426;DHT22;6277;49.824;9.562;2024-03-23T06:36:48;10.80;70.50
12426;DHT22;6277;49.824;9.562;2024-03-23T06:39:14;10.80;71.50
12426;DHT22;6277;49.824;9.562;2024-03-23T06:41:42;10.70;71.50
12426;DHT22;6277;49.824;9.562;2024-03-23T06:44:07;10.60;72.00
12426;DHT22;6277;49.824;9.562;2024-03-23T06:46:33;10.50;72.00
12426;DHT22;6277;49.824;9.562;2024-03-23T06:48:58;10.40;71.90
12426;DHT22;6277;49.824;9.562;2024-03-23T06:51:24;10.40;72.30
12426;DHT22;6277;49.824;9.562;2024-03-23T06:53:50;10.40;72.40
12426;DHT22;6277;49.824;9.562;2024-03-23T06:56:15;10.30;72.50
12426;DHT22;6277;49.824;9.562;2024-03-23T06:58:41;10.30;72.10
12426;DHT22;6277;49.824;9.562;2024-03-23T07:01:06;10.30;71.90
12426;DHT22;6277;49.824;9.562;2024-03-23T07:03:32;10.30;72.10
12426;DHT22;6277;49.824;9.562;2024-03-23T07:05:58;10.20;72.00
12426;DHT22;6277;49.824;9.562;2024-03-23T07:08:24;10.20;72.10
12426;DHT22;6277;49.824;9.562;2024-03-23T07:10:49;10.10;71.90
12426;DHT22;6277;49.824;9.562;2024-03-23T07:13:15;10.10;72.00
12426;DHT22;6277;49.824;9.562;2024-03-23T07:15:40;10.10;72.20
12426;DHT22;6277;49.824;9.562;2024-03-23T07:18:06;10.10;72.40
12426;DHT22;6277;49.824;9.562;2024-03-23T07:20:31;10.10;72.30
12426;DHT22;6277;49.824;9.562;2024-03-23T07:22:57;10.10;72.20
12426;DHT22;6277;49.824;9.562;2024-03-23T07:25:23;10.00;72.30
12426;DHT22;6277;49.824;9.562;2024-03-23T07:27:50;10.00;72.30
12426;DHT22;6277;49.824;9.562;2024-03-23T07:30:16;10.00;72.60
12426;DHT22;6277;49.824;9.562;2024-03-23T07:32:44;9.90;72.50
12426;DHT22;6277;49.824;9.562;2024-03-23T07:35:10;9.90;72.50
12426;DHT22;6277;49.824;9.562;2024-03-23T07:37:35;9.90;72.60
12426;DHT22;6277;49.824;9.562;2024-03-23T07:40:01;9.80;72.90
12426;DHT22;6277;49.824;9.562;2024-03-23T07:42:26;9.80;73.00
12426;DHT22;6277;49.824;9.562;2024-03-23T07:44:52;9.70;73.10
12426;DHT22;6277;49.824;9.562;2024-03-23T07:47:19;9.60;72.80
12426;DHT22;6277;49.824;9.562;2024-03-23T07:49:44;9.50;72.80
12426;DHT22;6277;49.824;9.562;2024-03-23T07:52:10;9.40;72.90
12426;DHT22;6277;49.824;9.562;2024-03-23T07:54:35;9.30;72.90
12426;DHT22;6277;49.824;9.562;2024-03-23T07:57:01;9.30;72.90
12426;DHT22;6277;49.824;9.562;2024-03-23T07:59:26;9.30;73.20
12426;DHT22;6277;49.824;9.562;2024-03-23T08:01:52;9.20;73.30
12426;DHT22;6277;49.824;9.562;2024-03-23T08:04:18;9.30;73.50
12426;DHT22;6277;49.824;9.562;2024-03-23T08:06:44;9.30;73.50
12426;DHT22;6277;49.824;9.562;2024-03-23T08:09:09;9.40;73.80
12426;DHT22;6277;49.824;9.562;2024-03-23T08:11:35;9.40;73.70
12426;DHT22;6277;49.824;9.562;2024-03-23T08:14:01;9.50;73.50
12426;DHT22;6277;49.824;9.562;2024-03-23T08:16:27;9.50;73.10
12426;DHT22;6277;49.824;9.562;2024-03-23T08:18:53;9.50;72.90
12426;DHT22;6277;49.824;9.562;2024-03-23T08:21:19;9.60;72.90
12426;DHT22;6277;49.824;9.562;2024-03-23T08:23:44;9.60;72.90
12426;DHT22;6277;49.824;9.562;2024-03-23T08:26:11;9.60;72.70
12426;DHT22;6277;49.824;9.562;2024-03-23T08:28:37;9.60;72.40
12426;DHT22;6277;49.824;9.562;2024-03-23T08:31:07;9.60;72.10
12426;DHT22;6277;49.824;9.562;2024-03-23T08:33:34;9.60;72.20
12426;DHT22;6277;49.824;9.562;2024-03-23T08:36:07;9.60;72.10
12426;DHT22;6277;49.824;9.562;2024-03-23T08:38:33;9.70;71.80
12426;DHT22;6277;49.824;9.562;2024-03-23T08:41:06;9.70;71.40
12426;DHT22;6277;49.824;9.562;2024-03-23T08:43:35;9.70;72.10
12426;DHT22;6277;49.824;9.562;2024-03-23T08:48:38;9.80;72.30
12426;DHT22;6277;49.824;9.562;2024-03-23T08:51:07;9.90;72.50
12426;DHT22;6277;49.824;9.562;2024-03-23T08:53:34;9.90;72.50
12426;DHT22;6277;49.824;9.562;2024-03-23T08:56:00;10.00;72.30
12426;DHT22;6277;49.824;9.562;2024-03-23T08:58:27;10.10;72.00
12426;DHT22;6277;49.824;9.562;2024-03-23T09:00:54;10.20;72.00
12426;DHT22;6277;49.824;9.562;2024-03-23T09:03:25;10.20;72.10
12426;DHT22;6277;49.824;9.562;2024-03-23T09:05:52;10.30;72.50
12426;DHT22;6277;49.824;9.562;2024-03-23T09:08:18;10.40;72.40
12426;DHT22;6277;49.824;9.562;2024-03-23T09:10:44;10.50;72.10
12426;DHT22;6277;49.824;9.562;2024-03-23T09:13:09;10.60;71.50
12426;DHT22;6277;49.824;9.562;2024-03-23T09:15:36;10.70;71.00
12426;DHT22;6277;49.824;9.562;2024-03-23T09:18:03;10.70;70.60
12426;DHT22;6277;49.824;9.562;2024-03-23T09:20:29;10.70;70.80
12426;DHT22;6277;49.824;9.562;2024-03-23T09:22:57;10.70;69.50
12426;DHT22;6277;49.824;9.562;2024-03-23T09:25:23;10.70;69.40
12426;DHT22;6277;49.824;9.562;2024-03-23T09:27:48;10.70;69.10
12426;DHT22;6277;49.824;9.562;2024-03-23T09:30:14;10.60;69.30
12426;DHT22;6277;49.824;9.562;2024-03-23T09:32:49;10.60;69.50
12426;DHT22;6277;49.824;9.562;2024-03-23T09:35:14;10.50;69.70
12426;DHT22;6277;49.824;9.562;2024-03-23T09:37:40;10.40;69.90
12426;DHT22;6277;49.824;9.562;2024-03-23T09:40:09;10.40;70.10
12426;DHT22;6277;49.824;9.562;2024-03-23T09:42:35;10.40;70.30
12426;DHT22;6277;49.824;9.562;2024-03-23T09:45:01;10.30;70.30
12426;DHT22;6277;49.824;9.562;2024-03-23T09:47:28;10.40;70.50
12426;DHT22;6277;49.824;9.562;2024-03-23T09:49:54;10.30;70.30
12426;DHT22;6277;49.824;9.562;2024-03-23T09:52:20;10.40;70.60
12426;DHT22;6277;49.824;9.562;2024-03-23T09:54:45;10.40;70.20
12426;DHT22;6277;49.824;9.562;2024-03-23T09:57:11;10.40;70.00
12426;DHT22;6277;49.824;9.562;2024-03-23T09:59:36;10.40;69.80
12426;DHT22;6277;49.824;9.562;2024-03-23T10:02:02;10.50;69.60
12426;DHT22;6277;49.824;9.562;2024-03-23T10:04:38;10.50;69.90
12426;DHT22;6277;49.824;9.562;2024-03-23T10:07:14;10.50;69.50
12426;DHT22;6277;49.824;9.562;2024-03-23T10:09:40;10.60;69.30
12426;DHT22;6277;49.824;9.562;2024-03-23T10:12:14;10.60;69.50
12426;DHT22;6277;49.824;9.562;2024-03-23T10:14:40;10.80;69.30
12426;DHT22;6277;49.824;9.562;2024-03-23T10:17:26;10.90;69.30
12426;DHT22;6277;49.824;9.562;2024-03-23T10:19:52;11.00;68.80
12426;DHT22;6277;49.824;9.562;2024-03-23T10:22:22;11.10;68.50
12426;DHT22;6277;49.824;9.562;2024-03-23T10:24:48;11.20;67.60
12426;DHT22;6277;49.824;9.562;2024-03-23T10:27:19;11.30;67.90
12426;DHT22;6277;49.824;9.562;2024-03-23T10:29:49;11.30;67.00
12426;DHT22;6277;49.824;9.562;2024-03-23T10:32:18;11.30;66.20
12426;DHT22;6277;49.824;9.562;2024-03-23T10:34:44;11.40;67.10
12426;DHT22;6277;49.824;9.562;2024-03-23T10:37:10;11.40;66.60
12426;DHT22;6277;49.824;9.562;2024-03-23T10:39:38;11.40;66.70
12426;DHT22;6277;49.824;9.562;2024-03-23T10:42:08;11.50;65.90
12426;DHT22;6277;49.824;9.562;2024-03-23T10:44:36;11.50;65.90
12426;DHT22;6277;49.824;9.562;2024-03-23T10:47:02;11.50;65.80
12426;DHT22;6277;49.824;9.562;2024-03-23T10:49:31;11.50;64.90
12426;DHT22;6277;49.824;9.562;2024-03-23T10:51:58;11.60;66.30
12426;DHT22;6277;49.824;9.562;2024-03-23T10:54:25;11.70;66.10
12426;DHT22;6277;49.824;9.562;2024-03-23T10:56:56;11.70;65.40
12426;DHT22;6277;49.824;9.562;2024-03-23T10:59:23;11.80;65.50
12426;DHT22;6277;49.824;9.562;2024-03-23T11:01:59;11.90;65.60
12426;DHT22;6277;49.824;9.562;2024-03-23T11:04:35;12.00;64.90
12426;DHT22;6277;49.824;9.562;2024-03-23T11:07:02;12.10;65.20
12426;DHT22;6277;49.824;9.562;2024-03-23T11:09:43;12.10;65.20
12426;DHT22;6277;49.824;9.562;2024-03-23T11:17:23;12.30;64.30
12426;DHT22;6277;49.824;9.562;2024-03-23T11:20:02;12.30;64.90
12426;DHT22;6277;49.824;9.562;2024-03-23T11:27:37;12.50;63.70
12426;DHT22;6277;49.824;9.562;2024-03-23T11:30:20;12.60;64.10
12426;DHT22;6277;49.824;9.562;2024-03-23T11:32:51;12.70;62.50
12426;DHT22;6277;49.824;9.562;2024-03-23T11:35:39;12.70;63.30
12426;DHT22;6277;49.824;9.562;2024-03-23T11:38:12;12.70;62.50
12426;DHT22;6277;49.824;9.562;2024-03-23T11:40:50;12.70;62.90
12426;DHT22;6277;49.824;9.562;2024-03-23T11:43:17;12.80;62.50
12426;DHT22;6277;49.824;9.562;2024-03-23T11:45:52;12.80;62.70
12426;DHT22;6277;49.824;9.562;2024-03-23T11:48:19;12.80;63.10
12426;DHT22;6277;49.824;9.562;2024-03-23T11:50:47;12.90;63.40
12426;DHT22;6277;49.824;9.562;2024-03-23T11:53:21;12.90;62.20
12426;DHT22;6277;49.824;9.562;2024-03-23T11:56:00;13.00;62.10
12426;DHT22;6277;49.824;9.562;2024-03-23T11:58:29;12.90;61.60
12426;DHT22;6277;49.824;9.562;2024-03-23T12:01:02;12.90;61.80
12426;DHT22;6277;49.824;9.562;2024-03-23T12:03:29;12.90;60.50
12426;DHT22;6277;49.824;9.562;2024-03-23T12:05:58;12.80;61.60
12426;DHT22;6277;49.824;9.562;2024-03-23T12:11:11;12.70;61.40
12426;DHT22;6277;49.824;9.562;2024-03-23T12:13:37;12.60;60.60
12426;DHT22;6277;49.824;9.562;2024-03-23T12:16:17;12.50;61.50
12426;DHT22;6277;49.824;9.562;2024-03-23T12:18:46;12.40;58.70
12426;DHT22;6277;49.824;9.562;2024-03-23T12:21:12;12.20;58.90
12426;DHT22;6277;49.824;9.562;2024-03-23T12:23:41;12.10;59.80
12426;DHT22;6277;49.824;9.562;2024-03-23T12:26:07;11.90;60.70
12426;DHT22;6277;49.824;9.562;2024-03-23T12:28:33;11.80;61.20
12426;DHT22;6277;49.824;9.562;2024-03-23T12:30:59;11.60;61.20
12426;DHT22;6277;49.824;9.562;2024-03-23T12:33:24;11.50;61.60
12426;DHT22;6277;49.824;9.562;2024-03-23T12:35:51;11.30;61.30
12426;DHT22;6277;49.824;9.562;2024-03-23T12:38:17;11.30;61.50
12426;DHT22;6277;49.824;9.562;2024-03-23T12:40:46;11.20;62.10
12426;DHT22;6277;49.824;9.562;2024-03-23T12:43:13;11.10;61.40
12426;DHT22;6277;49.824;9.562;2024-03-23T12:45:39;11.10;62.00
12426;DHT22;6277;49.824;9.562;2024-03-23T12:48:04;11.10;61.20
12426;DHT22;6277;49.824;9.562;2024-03-23T12:50:30;11.10;61.70
12426;DHT22;6277;49.824;9.562;2024-03-23T12:52:56;11.10;62.00
12426;DHT22;6277;49.824;9.562;2024-03-23T12:55:21;11.10;62.30
12426;DHT22;6277;49.824;9.562;2024-03-23T12:57:47;11.10;62.50
12426;DHT22;6277;49.824;9.562;2024-03-23T13:00:13;11.20;62.50
12426;DHT22;6277;49.824;9.562;2024-03-23T13:02:41;11.20;62.30
12426;DHT22;6277;49.824;9.562;2024-03-23T13:05:07;11.30;62.30
12426;DHT22;6277;49.824;9.562;2024-03-23T13:07:34;11.30;61.90
12426;DHT22;6277;49.824;9.562;2024-03-23T13:10:00;11.40;62.30
12426;DHT22;6277;49.824;9.562;2024-03-23T13:12:26;11.40;62.10
12426;DHT22;6277;49.824;9.562;2024-03-23T13:14:51;11.50;62.30
12426;DHT22;6277;49.824;9.562;2024-03-23T13:17:17;11.50;62.10
12426;DHT22;6277;49.824;9.562;2024-03-23T13:19:42;11.60;61.70
12426;DHT22;6277;49.824;9.562;2024-03-23T13:22:08;11.60;62.10
12426;DHT22;6277;49.824;9.562;2024-03-23T13:24:37;11.60;61.60
12426;DHT22;6277;49.824;9.562;2024-03-23T13:27:02;11.60;61.50
12426;DHT22;6277;49.824;9.562;2024-03-23T13:29:29;11.70;61.90
12426;DHT22;6277;49.824;9.562;2024-03-23T13:31:55;11.70;61.90
12426;DHT22;6277;49.824;9.562;2024-03-23T13:34:20;11.80;62.20
12426;DHT22;6277;49.824;9.562;2024-03-23T13:36:47;12.00;62.60
12426;DHT22;6277;49.824;9.562;2024-03-23T13:39:14;12.10;62.80
12426;DHT22;6277;49.824;9.562;2024-03-23T13:41:40;12.30;62.80
12426;DHT22;6277;49.824;9.562;2024-03-23T13:44:07;12.50;62.50
12426;DHT22;6277;49.824;9.562;2024-03-23T13:46:33;12.60;62.50
12426;DHT22;6277;49.824;9.562;2024-03-23T13:48:59;12.80;62.40
12426;DHT22;6277;49.824;9.562;2024-03-23T13:51:25;13.00;62.50
12426;DHT22;6277;49.824;9.562;2024-03-23T13:53:55;13.20;62.70
12426;DHT22;6277;49.824;9.562;2024-03-23T13:56:22;13.40;62.50
12426;DHT22;6277;49.824;9.562;2024-03-23T13:58:48;13.50;62.00
12426;DHT22;6277;49.824;9.562;2024-03-23T14:01:14;13.60;61.90
12426;DHT22;6277;49.824;9.562;2024-03-23T14:03:40;13.70;61.30
12426;DHT22;6277;49.824;9.562;2024-03-23T14:06:07;13.80;61.10
12426;DHT22;6277;49.824;9.562;2024-03-23T14:08:33;13.90;60.80
12426;DHT22;6277;49.824;9.562;2024-03-23T14:11:01;13.90;60.80
12426;DHT22;6277;49.824;9.562;2024-03-23T14:13:27;14.00;60.80
12426;DHT22;6277;49.824;9.562;2024-03-23T14:15:54;14.10;60.30
12426;DHT22;6277;49.824;9.562;2024-03-23T14:18:19;14.10;60.40
12426;DHT22;6277;49.824;9.562;2024-03-23T14:20:45;14.20;60.00
12426;DHT22;6277;49.824;9.562;2024-03-23T14:23:10;14.20;59.80
12426;DHT22;6277;49.824;9.562;2024-03-23T14:25:36;14.30;59.30
12426;DHT22;6277;49.824;9.562;2024-03-23T14:28:01;14.30;59.10
12426;DHT22;6277;49.824;9.562;2024-03-23T14:30:27;14.20;58.70
12426;DHT22;6277;49.824;9.562;2024-03-23T14:32:52;14.10;58.70
12426;DHT22;6277;49.824;9.562;2024-03-23T14:35:18;14.00;58.40
12426;DHT22;6277;49.824;9.562;2024-03-23T14:37:44;13.80;58.10
12426;DHT22;6277;49.824;9.562;2024-03-23T14:40:09;13.70;58.40
12426;DHT22;6277;49.824;9.562;2024-03-23T14:42:38;13.50;58.20
12426;DHT22;6277;49.824;9.562;2024-03-23T14:45:04;13.40;58.20
12426;DHT22;6277;49.824;9.562;2024-03-23T14:47:30;13.20;58.30
12426;DHT22;6277;49.824;9.562;2024-03-23T14:49:56;13.00;58.70
12426;DHT22;6277;49.824;9.562;2024-03-23T14:52:24;12.70;59.00
12426;DHT22;6277;49.824;9.562;2024-03-23T14:54:49;12.40;59.80
12426;DHT22;6277;49.824;9.562;2024-03-23T14:57:15;11.90;60.40
12426;DHT22;6277;49.824;9.562;2024-03-23T14:59:40;11.50;60.70
12426;DHT22;6277;49.824;9.562;2024-03-23T15:02:07;11.20;61.40
12426;DHT22;6277;49.824;9.562;2024-03-23T15:04:33;10.90;62.50
12426;DHT22;6277;49.824;9.562;2024-03-23T15:06:59;10.70;62.60
12426;DHT22;6277;49.824;9.562;2024-03-23T15:09:25;10.50;63.80
12426;DHT22;6277;49.824;9.562;2024-03-23T15:11:50;10.40;64.30
12426;DHT22;6277;49.824;9.562;2024-03-23T15:14:16;10.40;65.20
12426;DHT22;6277;49.824;9.562;2024-03-23T15:16:41;10.40;64.80
12426;DHT22;6277;49.824;9.562;2024-03-23T15:19:09;10.50;65.00
12426;DHT22;6277;49.824;9.562;2024-03-23T15:21:35;10.60;64.80
12426;DHT22;6277;49.824;9.562;2024-03-23T15:24:01;10.60;64.60
12426;DHT22;6277;49.824;9.562;2024-03-23T15:26:26;10.70;64.80
12426;DHT22;6277;49.824;9.562;2024-03-23T15:28:52;10.80;64.70
12426;DHT22;6277;49.824;9.562;2024-03-23T15:31:24;10.80;64.70
12426;DHT22;6277;49.824;9.562;2024-03-23T15:33:50;11.00;64.80
12426;DHT22;6277;49.824;9.562;2024-03-23T15:36:16;11.10;65.00
12426;DHT22;6277;49.824;9.562;2024-03-23T15:38:41;11.30;65.10
12426;DHT22;6277;49.824;9.562;2024-03-23T15:41:08;11.40;64.80
12426;DHT22;6277;49.824;9.562;2024-03-23T15:43:34;11.60;64.60
12426;DHT22;6277;49.824;9.562;2024-03-23T15:46:01;11.70;64.70
12426;DHT22;6277;49.824;9.562;2024-03-23T15:48:27;11.90;64.50
12426;DHT22;6277;49.824;9.562;2024-03-23T15:50:54;12.10;63.70
12426;DHT22;6277;49.824;9.562;2024-03-23T15:53:20;12.10;62.60
12426;DHT22;6277;49.824;9.562;2024-03-23T15:56:03;12.10;62.80
12426;DHT22;6277;49.824;9.562;2024-03-23T15:58:30;12.20;62.50
12426;DHT22;6277;49.824;9.562;2024-03-23T16:00:56;12.20;62.90
12426;DHT22;6277;49.824;9.562;2024-03-23T16:03:22;12.30;62.70
12426;DHT22;6277;49.824;9.562;2024-03-23T16:05:52;12.30;62.20
12426;DHT22;6277;49.824;9.562;2024-03-23T16:08:17;12.30;61.80
12426;DHT22;6277;49.824;9.562;2024-03-23T16:10:43;12.20;61.60
12426;DHT22;6277;49.824;9.562;2024-03-23T16:13:08;12.10;61.30
12426;DHT22;6277;49.824;9.562;2024-03-23T16:15:34;12.00;61.10
12426;DHT22;6277;49.824;9.562;2024-03-23T16:17:59;11.80;61.10
12426;DHT22;6277;49.824;9.562;2024-03-23T16:20:25;11.70;61.00
12426;DHT22;6277;49.824;9.562;2024-03-23T16:22:50;11.50;61.20
12426;DHT22;6277;49.824;9.562;2024-03-23T16:25:16;11.40;61.20
12426;DHT22;6277;49.824;9.562;2024-03-23T16:27:41;11.30;61.30
12426;DHT22;6277;49.824;9.562;2024-03-23T16:30:07;11.20;61.40
12426;DHT22;6277;49.824;9.562;2024-03-23T16:32:33;11.10;61.30
12426;DHT22;6277;49.824;9.562;2024-03-23T16:35:03;11.00;62.20
12426;DHT22;6277;49.824;9.562;2024-03-23T16:37:28;11.00;62.00
12426;DHT22;6277;49.824;9.562;2024-03-23T16:39:54;10.90;62.20
12426;DHT22;6277;49.824;9.562;2024-03-23T16:42:19;10.80;62.50
12426;DHT22;6277;49.824;9.562;2024-03-23T16:44:45;10.70;62.90
12426;DHT22;6277;49.824;9.562;2024-03-23T16:47:10;10.60;63.20
12426;DHT22;6277;49.824;9.562;2024-03-23T16:49:36;10.50;63.30
12426;DHT22;6277;49.824;9.562;2024-03-23T16:52:02;10.50;63.30
12426;DHT22;6277;49.824;9.562;2024-03-23T16:54:28;10.40;63.10